sensor_id;sensor_type;location;lat;lon;timestamp;temperature;humidity
19152;DHT22;9708;53.114;9.388;2023-06-22T00:00:10;17.00;99.90
19152;DHT22;9708;53.114;9.388;2023-06-22T00:02:37;17.00;99.90
19152;DHT22;9708;53.114;9.388;2023-06-22T00:05:05;17.00;99.90
19152;DHT22;9708;53.114;9.388;2023-06-22T00:07:31;16.90;99.90
19152;DHT22;9708;53.114;9.388;2023-06-22T00:09:59;16.90;99.90
19152;DHT22;9708;53.114;9.388;2023-06-22T00:12:26;16.90;99.90
19152;DHT22;9708;53.114;9.388;2023-06-22T00:14:53;16.80;99.90
19152;DHT22;9708;53.114;9.388;2023-06-22T00:17:20;16.90;99.90
19152;DHT22;9708;53.114;9.388;2023-06-22T00:19:47;16.90;99.90
19152;DHT22;9708;53.114;9.388;2023-06-22T00:22:18;16.90;99.90
19152;DHT22;9708;53.114;9.388;2023-06-22T00:24:47;16.90;99.90
19152;DHT22;9708;53.114;9.388;2023-06-22T00:27:15;16.90;99.90
19152;DHT22;9708;53.114;9.388;2023-06-22T00:29:41;16.80;99.90
19152;DHT22;9708;53.114;9.388;2023-06-22T00:32:08;16.80;99.90
19152;DHT22;9708;53.114;9.388;2023-06-22T00:34:35;16.90;99.90
19152;DHT22;9708;53.114;9.388;2023-06-22T00:37:02;16.80;99.90
19152;DHT22;9708;53.114;9.388;2023-06-22T00:39:29;16.80;99.90
19152;DHT22;9708;53.114;9.388;2023-06-22T00:41:56;16.80;99.90
19152;DHT22;9708;53.114;9.388;2023-06-22T00:44:24;16.80;99.90
19152;DHT22;9708;53.114;9.388;2023-06-22T00:46:51;16.70;99.90
19152;DHT22;9708;53.114;9.388;2023-06-22T00:49:18;16.70;99.90
19152;DHT22;9708;53.114;9.388;2023-06-22T00:51:45;16.70;99.90
19152;DHT22;9708;53.114;9.388;2023-06-22T00:54:13;16.70;99.90
19152;DHT22;9708;53.114;9.388;2023-06-22T00:56:40;16.60;99.90
19152;DHT22;9708;53.114;9.388;2023-06-22T00:59:08;16.60;99.90
19152;DHT22;9708;53.114;9.388;2023-06-22T01:01:39;16.60;99.90
19152;DHT22;9708;53.114;9.388;2023-06-22T01:04:06;16.60;99.90
19152;DHT22;9708;53.114;9.388;2023-06-22T01:06:38;16.70;99.90
19152;DHT22;9708;53.114;9.388;2023-06-22T01:09:10;16.60;99.90
19152;DHT22;9708;53.114;9.388;2023-06-22T01:11:44;16.60;99.90
19152;DHT22;9708;53.114;9.388;2023-06-22T01:14:15;16.60;99.90
19152;DHT22;9708;53.114;9.388;2023-06-22T01:16:47;16.60;99.90
19152;DHT22;9708;53.114;9.388;2023-06-22T01:19:29;16.50;99.90
19152;DHT22;9708;53.114;9.388;2023-06-22T01:22:01;16.50;99.90
19152;DHT22;9708;53.114;9.388;2023-06-22T01:24:33;16.50;99.90
19152;DHT22;9708;53.114;9.388;2023-06-22T01:27:17;16.60;99.90
19152;DHT22;9708;53.114;9.388;2023-06-22T01:29:49;16.50;99.90
19152;DHT22;9708;53.114;9.388;2023-06-22T01:32:17;16.50;99.90
19152;DHT22;9708;53.114;9.388;2023-06-22T01:34:44;16.40;99.90
19152;DHT22;9708;53.114;9.388;2023-06-22T01:37:12;16.50;99.90
19152;DHT22;9708;53.114;9.388;2023-06-22T01:39:40;16.50;99.90
19152;DHT22;9708;53.114;9.388;2023-06-22T01:42:07;16.50;99.90
19152;DHT22;9708;53.114;9.388;2023-06-22T01:44:34;16.50;99.90
19152;DHT22;9708;53.114;9.388;2023-06-22T01:47:03;16.40;99.90
19152;DHT22;9708;53.114;9.388;2023-06-22T01:49:30;16.40;99.90
19152;DHT22;9708;53.114;9.388;2023-06-22T01:51:57;16.40;99.90
19152;DHT22;9708;53.114;9.388;2023-06-22T01:54:24;16.30;99.90
19152;DHT22;9708;53.114;9.388;2023-06-22T01:56:51;16.30;99.90
19152;DHT22;9708;53.114;9.388;2023-06-22T01:59:23;16.30;99.90
19152;DHT22;9708;53.114;9.388;2023-06-22T02:01:56;16.30;99.90
19152;DHT22;9708;53.114;9.388;2023-06-22T02:04:31;16.20;99.90
19152;DHT22;9708;53.114;9.388;2023-06-22T02:07:00;16.20;99.90
19152;DHT22;9708;53.114;9.388;2023-06-22T02:09:29;16.20;99.90
19152;DHT22;9708;53.114;9.388;2023-06-22T02:11:57;16.20;99.90
19152;DHT22;9708;53.114;9.388;2023-06-22T02:14:24;16.20;99.90
19152;DHT22;9708;53.114;9.388;2023-06-22T02:16:51;16.20;99.90
19152;DHT22;9708;53.114;9.388;2023-06-22T02:19:22;16.10;99.90
19152;DHT22;9708;53.114;9.388;2023-06-22T02:21:51;16.10;99.90
19152;DHT22;9708;53.114;9.388;2023-06-22T02:24:18;16.10;99.90
19152;DHT22;9708;53.114;9.388;2023-06-22T02:26:44;16.00;99.90
19152;DHT22;9708;53.114;9.388;2023-06-22T02:29:11;16.00;99.90
19152;DHT22;9708;53.114;9.388;2023-06-22T02:31:38;15.90;99.90
19152;DHT22;9708;53.114;9.388;2023-06-22T02:34:05;15.90;99.90
19152;DHT22;9708;53.114;9.388;2023-06-22T02:36:32;15.90;99.90
19152;DHT22;9708;53.114;9.388;2023-06-22T02:39:00;15.90;99.90
19152;DHT22;9708;53.114;9.388;2023-06-22T02:41:29;15.90;99.90
19152;DHT22;9708;53.114;9.388;2023-06-22T02:43:56;15.80;99.90
19152;DHT22;9708;53.114;9.388;2023-06-22T02:46:22;15.80;99.90
19152;DHT22;9708;53.114;9.388;2023-06-22T02:48:49;15.80;99.90
19152;DHT22;9708;53.114;9.388;2023-06-22T02:51:16;15.80;99.90
19152;DHT22;9708;53.114;9.388;2023-06-22T02:53:43;15.80;99.90
19152;DHT22;9708;53.114;9.388;2023-06-22T02:56:11;15.80;99.90
19152;DHT22;9708;53.114;9.388;2023-06-22T02:58:38;15.80;99.90
19152;DHT22;9708;53.114;9.388;2023-06-22T03:01:05;15.80;99.90
19152;DHT22;9708;53.114;9.388;2023-06-22T03:03:32;15.80;99.90
19152;DHT22;9708;53.114;9.388;2023-06-22T03:05:58;15.70;99.90
19152;DHT22;9708;53.114;9.388;2023-06-22T03:08:27;15.80;99.90
19152;DHT22;9708;53.114;9.388;2023-06-22T03:10:54;15.80;99.90
19152;DHT22;9708;53.114;9.388;2023-06-22T03:13:22;15.80;99.90
19152;DHT22;9708;53.114;9.388;2023-06-22T03:15:49;15.80;99.90
19152;DHT22;9708;53.114;9.388;2023-06-22T03:18:16;15.80;99.90
19152;DHT22;9708;53.114;9.388;2023-06-22T03:20:43;15.80;99.90
19152;DHT22;9708;53.114;9.388;2023-06-22T03:23:09;15.80;99.90
19152;DHT22;9708;53.114;9.388;2023-06-22T03:25:36;15.80;99.90
19152;DHT22;9708;53.114;9.388;2023-06-22T03:28:03;15.90;99.90
19152;DHT22;9708;53.114;9.388;2023-06-22T03:30:31;16.00;99.90
19152;DHT22;9708;53.114;9.388;2023-06-22T03:32:58;16.00;99.90
19152;DHT22;9708;53.114;9.388;2023-06-22T03:35:25;16.00;99.90
19152;DHT22;9708;53.114;9.388;2023-06-22T03:37:52;16.10;99.90
19152;DHT22;9708;53.114;9.388;2023-06-22T03:40:19;16.10;99.90
19152;DHT22;9708;53.114;9.388;2023-06-22T03:42:46;16.10;99.90
19152;DHT22;9708;53.114;9.388;2023-06-22T03:45:12;16.20;99.90
19152;DHT22;9708;53.114;9.388;2023-06-22T03:47:40;16.20;99.90
19152;DHT22;9708;53.114;9.388;2023-06-22T03:50:08;16.30;99.90
19152;DHT22;9708;53.114;9.388;2023-06-22T03:52:34;16.40;99.90
19152;DHT22;9708;53.114;9.388;2023-06-22T03:55:01;16.50;99.90
19152;DHT22;9708;53.114;9.388;2023-06-22T03:57:28;16.50;99.90
19152;DHT22;9708;53.114;9.388;2023-06-22T03:59:56;16.50;99.90
19152;DHT22;9708;53.114;9.388;2023-06-22T04:02:23;16.50;99.90
19152;DHT22;9708;53.114;9.388;2023-06-22T04:04:52;16.50;99.90
19152;DHT22;9708;53.114;9.388;2023-06-22T04:07:18;16.60;99.90
19152;DHT22;9708;53.114;9.388;2023-06-22T04:09:45;16.70;99.90
19152;DHT22;9708;53.114;9.388;2023-06-22T04:12:12;16.80;99.90
19152;DHT22;9708;53.114;9.388;2023-06-22T04:14:39;16.80;99.90
19152;DHT22;9708;53.114;9.388;2023-06-22T04:17:05;16.80;99.90
19152;DHT22;9708;53.114;9.388;2023-06-22T04:19:32;16.90;99.90
19152;DHT22;9708;53.114;9.388;2023-06-22T04:22:00;16.90;99.90
19152;DHT22;9708;53.114;9.388;2023-06-22T04:24:27;17.00;99.90
19152;DHT22;9708;53.114;9.388;2023-06-22T04:26:54;17.00;99.90
19152;DHT22;9708;53.114;9.388;2023-06-22T04:29:21;17.10;99.90
19152;DHT22;9708;53.114;9.388;2023-06-22T04:31:54;17.20;99.90
19152;DHT22;9708;53.114;9.388;2023-06-22T04:34:23;17.30;99.90
19152;DHT22;9708;53.114;9.388;2023-06-22T04:36:51;17.40;99.90
19152;DHT22;9708;53.114;9.388;2023-06-22T04:39:20;17.40;99.90
19152;DHT22;9708;53.114;9.388;2023-06-22T04:41:47;17.60;99.90
19152;DHT22;9708;53.114;9.388;2023-06-22T04:44:15;17.70;99.90
19152;DHT22;9708;53.114;9.388;2023-06-22T04:46:49;17.90;99.90
19152;DHT22;9708;53.114;9.388;2023-06-22T04:49:20;18.00;99.90
19152;DHT22;9708;53.114;9.388;2023-06-22T04:51:47;18.20;99.90
19152;DHT22;9708;53.114;9.388;2023-06-22T04:54:17;18.20;99.90
19152;DHT22;9708;53.114;9.388;2023-06-22T04:56:45;18.30;99.90
19152;DHT22;9708;53.114;9.388;2023-06-22T04:59:12;18.30;99.90
19152;DHT22;9708;53.114;9.388;2023-06-22T05:01:39;18.40;99.90
19152;DHT22;9708;53.114;9.388;2023-06-22T05:04:06;18.30;99.90
19152;DHT22;9708;53.114;9.388;2023-06-22T05:06:33;18.30;99.90
19152;DHT22;9708;53.114;9.388;2023-06-22T05:08:59;18.50;99.90
19152;DHT22;9708;53.114;9.388;2023-06-22T05:11:27;18.60;99.90
19152;DHT22;9708;53.114;9.388;2023-06-22T05:13:55;18.80;99.90
19152;DHT22;9708;53.114;9.388;2023-06-22T05:16:23;19.20;99.90
19152;DHT22;9708;53.114;9.388;2023-06-22T05:18:52;20.00;99.90
19152;DHT22;9708;53.114;9.388;2023-06-22T05:21:22;20.70;99.90
19152;DHT22;9708;53.114;9.388;2023-06-22T05:23:49;20.70;99.90
19152;DHT22;9708;53.114;9.388;2023-06-22T05:26:16;20.50;99.90
19152;DHT22;9708;53.114;9.388;2023-06-22T05:28:43;20.50;99.90
19152;DHT22;9708;53.114;9.388;2023-06-22T05:31:13;20.90;99.90
19152;DHT22;9708;53.114;9.388;2023-06-22T05:33:40;21.10;99.90
19152;DHT22;9708;53.114;9.388;2023-06-22T05:36:07;20.90;99.90
19152;DHT22;9708;53.114;9.388;2023-06-22T05:38:34;20.40;99.90
19152;DHT22;9708;53.114;9.388;2023-06-22T05:41:01;20.30;99.90
19152;DHT22;9708;53.114;9.388;2023-06-22T05:43:28;20.50;99.90
19152;DHT22;9708;53.114;9.388;2023-06-22T05:45:55;21.20;99.90
19152;DHT22;9708;53.114;9.388;2023-06-22T05:48:23;21.80;99.90
19152;DHT22;9708;53.114;9.388;2023-06-22T05:50:50;22.00;99.90
19152;DHT22;9708;53.114;9.388;2023-06-22T05:53:16;23.30;99.90
19152;DHT22;9708;53.114;9.388;2023-06-22T05:55:43;23.90;99.90
19152;DHT22;9708;53.114;9.388;2023-06-22T05:58:10;24.00;99.90
19152;DHT22;9708;53.114;9.388;2023-06-22T06:00:38;24.70;99.90
19152;DHT22;9708;53.114;9.388;2023-06-22T06:03:06;24.70;99.90
19152;DHT22;9708;53.114;9.388;2023-06-22T06:05:34;24.00;99.90
19152;DHT22;9708;53.114;9.388;2023-06-22T06:08:03;23.50;99.90
19152;DHT22;9708;53.114;9.388;2023-06-22T06:10:30;23.60;99.90
19152;DHT22;9708;53.114;9.388;2023-06-22T06:12:57;23.70;99.90
19152;DHT22;9708;53.114;9.388;2023-06-22T06:15:24;24.60;99.90
19152;DHT22;9708;53.114;9.388;2023-06-22T06:17:52;25.10;99.90
19152;DHT22;9708;53.114;9.388;2023-06-22T06:20:20;25.70;99.90
19152;DHT22;9708;53.114;9.388;2023-06-22T06:22:49;27.70;99.90
19152;DHT22;9708;53.114;9.388;2023-06-22T06:25:16;27.70;99.90
19152;DHT22;9708;53.114;9.388;2023-06-22T06:27:46;27.40;99.90
19152;DHT22;9708;53.114;9.388;2023-06-22T06:30:14;27.70;99.90
19152;DHT22;9708;53.114;9.388;2023-06-22T06:32:41;28.10;99.90
19152;DHT22;9708;53.114;9.388;2023-06-22T06:35:10;28.50;99.90
19152;DHT22;9708;53.114;9.388;2023-06-22T06:37:37;28.70;99.90
19152;DHT22;9708;53.114;9.388;2023-06-22T06:40:07;29.10;99.90
19152;DHT22;9708;53.114;9.388;2023-06-22T06:42:36;29.10;99.90
19152;DHT22;9708;53.114;9.388;2023-06-22T06:45:05;28.10;99.90
19152;DHT22;9708;53.114;9.388;2023-06-22T06:47:32;28.80;99.90
19152;DHT22;9708;53.114;9.388;2023-06-22T06:49:58;28.30;99.90
19152;DHT22;9708;53.114;9.388;2023-06-22T06:52:25;28.60;99.90
19152;DHT22;9708;53.114;9.388;2023-06-22T06:54:52;28.10;99.90
19152;DHT22;9708;53.114;9.388;2023-06-22T06:57:20;27.40;99.90
19152;DHT22;9708;53.114;9.388;2023-06-22T06:59:48;26.70;99.90
19152;DHT22;9708;53.114;9.388;2023-06-22T07:02:14;26.40;99.90
19152;DHT22;9708;53.114;9.388;2023-06-22T07:04:41;26.30;99.90
19152;DHT22;9708;53.114;9.388;2023-06-22T07:07:08;26.40;99.90
19152;DHT22;9708;53.114;9.388;2023-06-22T07:09:35;26.00;99.90
19152;DHT22;9708;53.114;9.388;2023-06-22T07:12:02;26.00;99.90
19152;DHT22;9708;53.114;9.388;2023-06-22T07:14:30;26.00;99.90
19152;DHT22;9708;53.114;9.388;2023-06-22T07:16:57;26.30;99.90
19152;DHT22;9708;53.114;9.388;2023-06-22T07:19:27;26.60;99.90
19152;DHT22;9708;53.114;9.388;2023-06-22T07:21:55;26.70;99.90
19152;DHT22;9708;53.114;9.388;2023-06-22T07:24:22;26.70;99.90
19152;DHT22;9708;53.114;9.388;2023-06-22T07:26:49;27.20;99.90
19152;DHT22;9708;53.114;9.388;2023-06-22T07:29:17;28.20;99.90
19152;DHT22;9708;53.114;9.388;2023-06-22T07:31:45;27.90;99.90
19152;DHT22;9708;53.114;9.388;2023-06-22T07:34:12;27.70;99.90
19152;DHT22;9708;53.114;9.388;2023-06-22T07:36:38;27.70;99.90
19152;DHT22;9708;53.114;9.388;2023-06-22T07:39:05;27.80;99.90
19152;DHT22;9708;53.114;9.388;2023-06-22T07:41:32;28.50;99.90
19152;DHT22;9708;53.114;9.388;2023-06-22T07:43:59;29.00;99.90
19152;DHT22;9708;53.114;9.388;2023-06-22T07:46:26;29.10;99.90
19152;DHT22;9708;53.114;9.388;2023-06-22T07:48:56;29.30;99.90
19152;DHT22;9708;53.114;9.388;2023-06-22T07:51:24;29.30;99.90
19152;DHT22;9708;53.114;9.388;2023-06-22T07:53:51;28.50;99.90
19152;DHT22;9708;53.114;9.388;2023-06-22T07:56:18;28.40;99.90
19152;DHT22;9708;53.114;9.388;2023-06-22T07:58:46;29.00;99.90
19152;DHT22;9708;53.114;9.388;2023-06-22T08:01:13;29.20;99.90
19152;DHT22;9708;53.114;9.388;2023-06-22T08:03:40;29.00;99.90
19152;DHT22;9708;53.114;9.388;2023-06-22T08:06:09;28.80;99.90
19152;DHT22;9708;53.114;9.388;2023-06-22T08:08:36;29.00;99.90
19152;DHT22;9708;53.114;9.388;2023-06-22T08:11:03;29.10;99.90
19152;DHT22;9708;53.114;9.388;2023-06-22T08:13:30;29.00;99.90
19152;DHT22;9708;53.114;9.388;2023-06-22T08:15:57;28.90;99.90
19152;DHT22;9708;53.114;9.388;2023-06-22T08:18:23;28.40;99.90
19152;DHT22;9708;53.114;9.388;2023-06-22T08:20:50;28.20;99.90
19152;DHT22;9708;53.114;9.388;2023-06-22T08:23:18;28.70;99.90
19152;DHT22;9708;53.114;9.388;2023-06-22T08:25:45;28.50;99.90
19152;DHT22;9708;53.114;9.388;2023-06-22T08:28:13;28.90;99.90
19152;DHT22;9708;53.114;9.388;2023-06-22T08:30:40;29.60;99.90
19152;DHT22;9708;53.114;9.388;2023-06-22T08:33:07;29.90;99.90
19152;DHT22;9708;53.114;9.388;2023-06-22T08:35:33;30.00;99.90
19152;DHT22;9708;53.114;9.388;2023-06-22T08:38:00;29.50;99.90
19152;DHT22;9708;53.114;9.388;2023-06-22T08:40:29;28.70;99.90
19152;DHT22;9708;53.114;9.388;2023-06-22T08:42:55;28.90;99.90
19152;DHT22;9708;53.114;9.388;2023-06-22T08:45:22;29.20;99.90
19152;DHT22;9708;53.114;9.388;2023-06-22T08:47:49;29.50;99.90
19152;DHT22;9708;53.114;9.388;2023-06-22T08:50:16;29.60;99.90
19152;DHT22;9708;53.114;9.388;2023-06-22T08:52:43;29.90;99.90
19152;DHT22;9708;53.114;9.388;2023-06-22T08:55:11;30.10;99.90
19152;DHT22;9708;53.114;9.388;2023-06-22T08:57:39;30.10;99.90
19152;DHT22;9708;53.114;9.388;2023-06-22T09:00:08;29.60;99.90
19152;DHT22;9708;53.114;9.388;2023-06-22T09:02:46;29.40;99.90
19152;DHT22;9708;53.114;9.388;2023-06-22T09:05:13;29.50;99.90
19152;DHT22;9708;53.114;9.388;2023-06-22T09:07:40;29.70;99.90
19152;DHT22;9708;53.114;9.388;2023-06-22T09:10:08;29.60;99.90
19152;DHT22;9708;53.114;9.388;2023-06-22T09:12:34;29.90;99.90
19152;DHT22;9708;53.114;9.388;2023-06-22T09:15:05;30.40;99.90
19152;DHT22;9708;53.114;9.388;2023-06-22T09:17:33;30.50;99.90
19152;DHT22;9708;53.114;9.388;2023-06-22T09:20:01;30.70;99.90
19152;DHT22;9708;53.114;9.388;2023-06-22T09:22:31;30.50;99.90
19152;DHT22;9708;53.114;9.388;2023-06-22T09:24:58;30.70;99.90
19152;DHT22;9708;53.114;9.388;2023-06-22T09:27:25;30.90;99.90
19152;DHT22;9708;53.114;9.388;2023-06-22T09:29:52;31.40;99.90
19152;DHT22;9708;53.114;9.388;2023-06-22T09:32:20;31.00;99.90
19152;DHT22;9708;53.114;9.388;2023-06-22T09:34:47;30.50;99.90
19152;DHT22;9708;53.114;9.388;2023-06-22T09:37:13;30.80;99.90
19152;DHT22;9708;53.114;9.388;2023-06-22T09:39:40;31.30;99.90
19152;DHT22;9708;53.114;9.388;2023-06-22T09:42:07;31.30;99.90
19152;DHT22;9708;53.114;9.388;2023-06-22T09:44:34;31.60;99.90
19152;DHT22;9708;53.114;9.388;2023-06-22T09:47:01;31.80;99.90
19152;DHT22;9708;53.114;9.388;2023-06-22T09:49:30;31.60;99.90
19152;DHT22;9708;53.114;9.388;2023-06-22T09:51:57;31.50;99.90
19152;DHT22;9708;53.114;9.388;2023-06-22T09:54:24;31.40;99.90
19152;DHT22;9708;53.114;9.388;2023-06-22T09:56:51;32.00;99.90
19152;DHT22;9708;53.114;9.388;2023-06-22T09:59:18;31.90;99.90
19152;DHT22;9708;53.114;9.388;2023-06-22T10:01:44;32.10;99.90
19152;DHT22;9708;53.114;9.388;2023-06-22T10:04:11;32.70;99.90
19152;DHT22;9708;53.114;9.388;2023-06-22T10:06:39;32.70;99.90
19152;DHT22;9708;53.114;9.388;2023-06-22T10:09:06;32.50;99.90
19152;DHT22;9708;53.114;9.388;2023-06-22T10:11:36;32.50;99.90
19152;DHT22;9708;53.114;9.388;2023-06-22T10:14:03;32.60;99.90
19152;DHT22;9708;53.114;9.388;2023-06-22T10:16:32;32.60;99.90
19152;DHT22;9708;53.114;9.388;2023-06-22T10:19:01;31.60;99.90
19152;DHT22;9708;53.114;9.388;2023-06-22T10:21:28;31.90;99.90
19152;DHT22;9708;53.114;9.388;2023-06-22T10:23:56;32.50;99.90
19152;DHT22;9708;53.114;9.388;2023-06-22T10:26:23;32.60;99.90
19152;DHT22;9708;53.114;9.388;2023-06-22T10:28:50;32.10;99.90
19152;DHT22;9708;53.114;9.388;2023-06-22T10:31:16;31.80;99.90
19152;DHT22;9708;53.114;9.388;2023-06-22T10:33:43;31.50;99.90
19152;DHT22;9708;53.114;9.388;2023-06-22T10:36:10;31.80;99.90
19152;DHT22;9708;53.114;9.388;2023-06-22T10:38:37;31.40;99.90
19152;DHT22;9708;53.114;9.388;2023-06-22T10:41:05;31.70;99.90
19152;DHT22;9708;53.114;9.388;2023-06-22T10:43:32;31.50;99.90
19152;DHT22;9708;53.114;9.388;2023-06-22T10:45:59;31.70;99.90
19152;DHT22;9708;53.114;9.388;2023-06-22T10:48:25;31.70;99.90
19152;DHT22;9708;53.114;9.388;2023-06-22T10:50:52;31.40;99.90
19152;DHT22;9708;53.114;9.388;2023-06-22T10:53:20;31.80;99.90
19152;DHT22;9708;53.114;9.388;2023-06-22T10:55:46;31.70;99.90
19152;DHT22;9708;53.114;9.388;2023-06-22T10:58:14;31.90;99.90
19152;DHT22;9708;53.114;9.388;2023-06-22T11:00:41;32.10;99.90
19152;DHT22;9708;53.114;9.388;2023-06-22T11:03:08;31.50;99.90
19152;DHT22;9708;53.114;9.388;2023-06-22T11:05:35;30.90;99.90
19152;DHT22;9708;53.114;9.388;2023-06-22T11:08:01;30.90;99.90
19152;DHT22;9708;53.114;9.388;2023-06-22T11:10:28;30.70;99.90
19152;DHT22;9708;53.114;9.388;2023-06-22T11:12:55;30.80;99.90
19152;DHT22;9708;53.114;9.388;2023-06-22T11:15:24;30.60;99.90
19152;DHT22;9708;53.114;9.388;2023-06-22T11:17:51;30.30;99.90
19152;DHT22;9708;53.114;9.388;2023-06-22T11:20:18;30.30;99.90
19152;DHT22;9708;53.114;9.388;2023-06-22T11:22:45;30.20;99.90
19152;DHT22;9708;53.114;9.388;2023-06-22T11:25:12;30.20;99.90
19152;DHT22;9708;53.114;9.388;2023-06-22T11:27:39;29.80;99.90
19152;DHT22;9708;53.114;9.388;2023-06-22T11:30:07;29.80;99.90
19152;DHT22;9708;53.114;9.388;2023-06-22T11:32:35;29.40;99.90
19152;DHT22;9708;53.114;9.388;2023-06-22T11:35:02;29.20;99.90
19152;DHT22;9708;53.114;9.388;2023-06-22T11:37:29;29.10;99.90
19152;DHT22;9708;53.114;9.388;2023-06-22T11:39:55;29.30;99.90
19152;DHT22;9708;53.114;9.388;2023-06-22T11:42:23;29.30;99.90
19152;DHT22;9708;53.114;9.388;2023-06-22T11:44:50;29.10;99.90
19152;DHT22;9708;53.114;9.388;2023-06-22T11:47:17;29.20;99.90
19152;DHT22;9708;53.114;9.388;2023-06-22T11:49:46;29.40;99.90
19152;DHT22;9708;53.114;9.388;2023-06-22T11:52:13;29.30;99.90
19152;DHT22;9708;53.114;9.388;2023-06-22T11:54:39;29.20;99.90
19152;DHT22;9708;53.114;9.388;2023-06-22T11:57:06;29.20;99.90
19152;DHT22;9708;53.114;9.388;2023-06-22T11:59:33;29.30;99.90
19152;DHT22;9708;53.114;9.388;2023-06-22T12:02:00;29.40;99.90
19152;DHT22;9708;53.114;9.388;2023-06-22T12:04:27;29.40;99.90
19152;DHT22;9708;53.114;9.388;2023-06-22T12:06:55;29.30;99.90
19152;DHT22;9708;53.114;9.388;2023-06-22T12:09:21;29.40;99.90
19152;DHT22;9708;53.114;9.388;2023-06-22T12:11:48;29.20;99.90
19152;DHT22;9708;53.114;9.388;2023-06-22T12:14:15;29.00;99.90
19152;DHT22;9708;53.114;9.388;2023-06-22T12:16:42;29.00;99.90
19152;DHT22;9708;53.114;9.388;2023-06-22T12:19:10;28.90;99.90
19152;DHT22;9708;53.114;9.388;2023-06-22T12:21:37;28.90;99.90
19152;DHT22;9708;53.114;9.388;2023-06-22T12:24:06;29.10;99.90
19152;DHT22;9708;53.114;9.388;2023-06-22T12:26:33;29.20;99.90
19152;DHT22;9708;53.114;9.388;2023-06-22T12:28:59;29.20;99.90
19152;DHT22;9708;53.114;9.388;2023-06-22T12:31:26;29.10;99.90
19152;DHT22;9708;53.114;9.388;2023-06-22T12:33:54;29.00;99.90
19152;DHT22;9708;53.114;9.388;2023-06-22T12:36:21;29.10;99.90
19152;DHT22;9708;53.114;9.388;2023-06-22T12:38:47;28.90;99.90
19152;DHT22;9708;53.114;9.388;2023-06-22T12:41:15;28.80;99.90
19152;DHT22;9708;53.114;9.388;2023-06-22T12:43:42;29.00;99.90
19152;DHT22;9708;53.114;9.388;2023-06-22T12:46:09;29.10;99.90
19152;DHT22;9708;53.114;9.388;2023-06-22T12:48:36;28.80;99.90
19152;DHT22;9708;53.114;9.388;2023-06-22T12:51:07;28.60;99.90
19152;DHT22;9708;53.114;9.388;2023-06-22T12:53:33;28.40;99.90
19152;DHT22;9708;53.114;9.388;2023-06-22T12:56:00;28.40;99.90
19152;DHT22;9708;53.114;9.388;2023-06-22T12:58:28;28.40;99.90
19152;DHT22;9708;53.114;9.388;2023-06-22T13:00:55;28.10;99.90
19152;DHT22;9708;53.114;9.388;2023-06-22T13:03:22;28.20;99.90
19152;DHT22;9708;53.114;9.388;2023-06-22T13:05:50;28.10;99.90
19152;DHT22;9708;53.114;9.388;2023-06-22T13:08:17;28.00;99.90
19152;DHT22;9708;53.114;9.388;2023-06-22T13:10:44;27.90;99.90
19152;DHT22;9708;53.114;9.388;2023-06-22T13:13:10;28.00;99.90
19152;DHT22;9708;53.114;9.388;2023-06-22T13:15:38;28.00;99.90
19152;DHT22;9708;53.114;9.388;2023-06-22T13:18:05;28.20;99.90
19152;DHT22;9708;53.114;9.388;2023-06-22T13:20:33;28.10;99.90
19152;DHT22;9708;53.114;9.388;2023-06-22T13:23:00;28.10;99.90
19152;DHT22;9708;53.114;9.388;2023-06-22T13:25:27;28.20;99.90
19152;DHT22;9708;53.114;9.388;2023-06-22T13:27:53;28.40;99.90
19152;DHT22;9708;53.114;9.388;2023-06-22T13:30:20;28.30;99.90
19152;DHT22;9708;53.114;9.388;2023-06-22T13:32:48;28.20;99.90
19152;DHT22;9708;53.114;9.388;2023-06-22T13:35:15;28.30;99.90
19152;DHT22;9708;53.114;9.388;2023-06-22T13:37:43;28.30;99.90
19152;DHT22;9708;53.114;9.388;2023-06-22T13:40:10;28.40;99.90
19152;DHT22;9708;53.114;9.388;2023-06-22T13:42:37;28.60;99.90
19152;DHT22;9708;53.114;9.388;2023-06-22T13:45:05;28.60;99.90
19152;DHT22;9708;53.114;9.388;2023-06-22T13:47:32;28.60;99.90
19152;DHT22;9708;53.114;9.388;2023-06-22T13:50:01;28.40;99.90
19152;DHT22;9708;53.114;9.388;2023-06-22T13:52:28;28.10;99.90
19152;DHT22;9708;53.114;9.388;2023-06-22T13:54:54;28.10;99.90
19152;DHT22;9708;53.114;9.388;2023-06-22T13:57:21;28.20;99.90
19152;DHT22;9708;53.114;9.388;2023-06-22T13:59:48;28.10;99.90
19152;DHT22;9708;53.114;9.388;2023-06-22T14:02:15;28.10;99.90
19152;DHT22;9708;53.114;9.388;2023-06-22T14:04:41;27.90;99.90
19152;DHT22;9708;53.114;9.388;2023-06-22T14:07:09;28.00;99.90
19152;DHT22;9708;53.114;9.388;2023-06-22T14:09:36;27.90;99.90
19152;DHT22;9708;53.114;9.388;2023-06-22T14:12:04;27.90;99.90
19152;DHT22;9708;53.114;9.388;2023-06-22T14:14:31;27.80;99.90
19152;DHT22;9708;53.114;9.388;2023-06-22T14:16:58;27.80;99.90
19152;DHT22;9708;53.114;9.388;2023-06-22T14:19:25;27.60;99.90
19152;DHT22;9708;53.114;9.388;2023-06-22T14:21:51;27.90;99.90
19152;DHT22;9708;53.114;9.388;2023-06-22T14:24:19;27.80;99.90
19152;DHT22;9708;53.114;9.388;2023-06-22T14:26:46;27.70;99.90
19152;DHT22;9708;53.114;9.388;2023-06-22T14:29:13;27.60;99.90
19152;DHT22;9708;53.114;9.388;2023-06-22T14:31:40;27.60;99.90
19152;DHT22;9708;53.114;9.388;2023-06-22T14:34:07;27.50;99.90
19152;DHT22;9708;53.114;9.388;2023-06-22T14:36:33;27.30;99.90
19152;DHT22;9708;53.114;9.388;2023-06-22T14:39:00;27.10;99.90
19152;DHT22;9708;53.114;9.388;2023-06-22T14:41:29;27.00;99.90
19152;DHT22;9708;53.114;9.388;2023-06-22T14:43:56;26.90;99.90
19152;DHT22;9708;53.114;9.388;2023-06-22T14:46:23;26.90;99.90
19152;DHT22;9708;53.114;9.388;2023-06-22T14:48:49;26.70;99.90
19152;DHT22;9708;53.114;9.388;2023-06-22T14:51:16;26.60;99.90
19152;DHT22;9708;53.114;9.388;2023-06-22T14:53:44;26.60;99.90
19152;DHT22;9708;53.114;9.388;2023-06-22T14:56:11;26.60;99.90
19152;DHT22;9708;53.114;9.388;2023-06-22T14:58:41;26.50;99.90
19152;DHT22;9708;53.114;9.388;2023-06-22T15:01:11;26.50;99.90
19152;DHT22;9708;53.114;9.388;2023-06-22T15:03:38;26.20;99.90
19152;DHT22;9708;53.114;9.388;2023-06-22T15:06:05;26.10;99.90
19152;DHT22;9708;53.114;9.388;2023-06-22T15:08:32;26.00;99.90
19152;DHT22;9708;53.114;9.388;2023-06-22T15:10:59;26.00;99.90
19152;DHT22;9708;53.114;9.388;2023-06-22T15:13:27;25.90;99.90
19152;DHT22;9708;53.114;9.388;2023-06-22T15:15:56;25.80;99.90
19152;DHT22;9708;53.114;9.388;2023-06-22T15:18:22;25.70;99.90
19152;DHT22;9708;53.114;9.388;2023-06-22T15:20:49;25.70;99.90
19152;DHT22;9708;53.114;9.388;2023-06-22T15:23:17;25.60;99.90
19152;DHT22;9708;53.114;9.388;2023-06-22T15:25:44;25.50;99.90
19152;DHT22;9708;53.114;9.388;2023-06-22T15:28:11;25.50;99.90
19152;DHT22;9708;53.114;9.388;2023-06-22T15:30:38;25.40;99.90
19152;DHT22;9708;53.114;9.388;2023-06-22T15:33:06;25.30;99.90
19152;DHT22;9708;53.114;9.388;2023-06-22T15:35:33;25.10;99.90
19152;DHT22;9708;53.114;9.388;2023-06-22T15:38:00;24.90;99.90
19152;DHT22;9708;53.114;9.388;2023-06-22T15:40:27;24.80;99.90
19152;DHT22;9708;53.114;9.388;2023-06-22T15:42:54;24.70;99.90
19152;DHT22;9708;53.114;9.388;2023-06-22T15:45:20;24.30;99.90